Thunder radar more information blitzortung!


Löydät sääaseman tiedot myös:

European Weather Network

Finland Weather Exchange

Weather Underground

AWEKAS



Weather Underground säähistoriasivu

Päivittäin yhteenveto Maaliskuu 15, 2017 Yksiköt:  Englantilaiset    Metriset   Molemmat
« Edellinen Päivä
Seuraava Päivä »
Päivittäin Viikoittain Kuukausittain Vuosittain Mukautettu
  Korkea: Matala: Keskiarvo:
Lämpötila: TemperatureC °F 0.7 °F 3 °F
Kastepiste: DewpointC °F -1.3 °F 0.7 °F
Kosteus: Humidity % 68 % 84 %
Tuulen nopeus: WindSpeedKMH mph 0.0 mph 6.5 mph
Tuulenpuuska: WindSpeedGustKMH mph - -
Tuuli:- - SW
Ilmanpaine: PressurehPa in 989.1 in -
Sade: 0.0 in    
Historical Graphs
 
 
Taulukkotiedot Maaliskuu 15, 2017
Aika Lämpötila Kastepiste Ilmanpaine Tuuli Tuulen nopeus Tuulenpuuska Kosteus Sademäärä (tunneittain)
TemperatureC °F DewpointC °F PressurehPa in Calm     Humidity % HourlyPrecipMM in
00:00 1.8 °F 1.4 °F 991.4 in SSW 3.2 mph 9.7 mph 97 % 0.0 in
00:15 1.9 °F 1.5 °F 991.4 in SSW 3.2 mph 11.3 mph 97 % 0.0 in
00:45 1.9 °F 1.5 °F 991.4 in SW 1.6 mph 11.3 mph 97 % 0.0 in
01:00 1.9 °F 1.5 °F 991.1 in SW 1.6 mph 8.0 mph 97 % 0.0 in
01:15 1.9 °F 1.5 °F 991.4 in Calm   4.8 mph 97 % 0.0 in
01:30 1.9 °F 1.5 °F 991.1 in SSW 1.6 mph 4.8 mph 97 % 0.0 in
01:45 1.9 °F 1.5 °F 991.4 in SSW 3.2 mph 6.4 mph 97 % 0.0 in
02:00 1.9 °F 1.5 °F 990.7 in SW 1.6 mph 9.7 mph 97 % 0.0 in
02:15 1.8 °F 1.4 °F 990.7 in SSW 3.2 mph 12.9 mph 97 % 0.0 in
02:30 1.7 °F 1.3 °F 990.7 in SSW 3.2 mph 8.0 mph 97 % 0.0 in
02:45 1.7 °F 1.2 °F 990.4 in SSW 3.2 mph 11.3 mph 97 % 0.0 in
03:00 1.6 °F 1.2 °F 990.4 in SSW 4.8 mph 12.9 mph 97 % 0.0 in
03:15 1.5 °F 1.1 °F 990.4 in SW 3.2 mph 9.7 mph 97 % 0.0 in
03:30 1.3 °F 0.9 °F 990.1 in SSW 4.8 mph 12.9 mph 97 % 0.0 in
03:45 1.3 °F 0.9 °F 990.4 in SSW 6.4 mph 11.3 mph 97 % 0.0 in
04:00 1.2 °F 0.8 °F 990.4 in SSW 6.4 mph 16.1 mph 97 % 0.0 in
04:15 1.2 °F 0.7 °F 990.4 in SSW 6.4 mph 14.5 mph 97 % 0.0 in
04:30 1.1 °F 0.6 °F 990.1 in SSW 4.8 mph 12.9 mph 97 % 0.0 in
04:45 0.9 °F 0.5 °F 990.1 in SSW 4.8 mph 14.5 mph 97 % 0.0 in
05:00 1.0 °F 0.6 °F 990.1 in SSW 8.0 mph 20.9 mph 97 % 0.0 in
05:45 1.2 °F 0.7 °F 989.7 in SSW 8.0 mph 20.9 mph 97 % 0.0 in
06:00 1.1 °F 0.5 °F 989.7 in SSW 6.4 mph 14.5 mph 96 % 0.0 in
06:15 1.0 °F 0.4 °F 989.7 in SSW 8.0 mph 12.9 mph 96 % 0.0 in
06:30 0.8 °F 0.3 °F 989.4 in SSW 6.4 mph 16.1 mph 96 % 0.0 in
06:45 0.7 °F 0.2 °F 989.4 in SSW 4.8 mph 9.7 mph 96 % 0.0 in
07:00 0.7 °F 0.2 °F 989.4 in SSW 4.8 mph 11.3 mph 96 % 0.0 in
07:15 0.8 °F 0.1 °F 989.4 in SSW 6.4 mph 19.3 mph 95 % 0.0 in
07:30 0.9 °F 0.2 °F 989.4 in SSW 6.4 mph 19.3 mph 95 % 0.0 in
07:45 1.2 °F 0.5 °F 989.4 in SSW 9.7 mph 22.5 mph 95 % 0.0 in
08:00 1.3 °F 0.5 °F 989.7 in SSW 6.4 mph 17.7 mph 94 % 0.0 in
08:15 1.3 °F 0.6 °F 989.4 in SSW 4.8 mph 14.5 mph 95 % 0.0 in
08:30 1.6 °F 1.0 °F 989.4 in SSW 8.0 mph 22.5 mph 96 % 0.0 in
08:45 1.8 °F 1.1 °F 989.1 in SSW 8.0 mph 19.3 mph 95 % 0.0 in
09:00 2.1 °F 1.3 °F 989.4 in SSW 6.4 mph 17.7 mph 95 % 0.0 in
09:15 2.4 °F 1.3 °F 989.1 in SSW 8.0 mph 24.1 mph 92 % 0.0 in
09:30 2.7 °F 1.4 °F 989.1 in SSW 9.7 mph 22.5 mph 91 % 0.0 in
09:45 3.1 °F 1.3 °F 989.1 in SSW 9.7 mph 22.5 mph 88 % 0.0 in
10:00 3.2 °F 1.3 °F 989.4 in SSW 9.7 mph 22.5 mph 87 % 0.0 in
10:15 3.4 °F 1.3 °F 989.4 in SSW 8.0 mph 20.9 mph 86 % 0.0 in
10:30 3.5 °F 1.0 °F 989.1 in SSW 9.7 mph 22.5 mph 84 % 0.0 in
10:45 3.7 °F 1.3 °F 989.4 in SSW 9.7 mph 24.1 mph 84 % 0.0 in
11:00 3.2 °F 1.2 °F 989.7 in SW 9.7 mph 22.5 mph 87 % 0.0 in
11:15 2.4 °F 1.1 °F 989.7 in SSW 8.0 mph 27.4 mph 91 % 0.0 in
11:30 1.8 °F 0.8 °F 990.1 in SSW 9.7 mph 25.7 mph 93 % 0.0 in
11:45 1.6 °F 0.7 °F 990.1 in SW 8.0 mph 19.3 mph 94 % 0.0 in
12:00 1.9 °F 1.1 °F 990.1 in SSW 9.7 mph 17.7 mph 94 % 0.0 in
12:15 2.6 °F 1.4 °F 990.1 in SSW 9.7 mph 20.9 mph 92 % 0.0 in
12:30 3.2 °F 1.5 °F 990.4 in SSW 8.0 mph 22.5 mph 89 % 0.0 in
12:45 3.9 °F 1.7 °F 990.4 in SSW 9.7 mph 20.9 mph 85 % 0.0 in
13:00 4.5 °F 1.7 °F 990.4 in SSW 9.7 mph 27.4 mph 82 % 0.0 in
13:15 4.6 °F 1.4 °F 990.7 in SSW 8.0 mph 22.5 mph 80 % 0.0 in
13:30 4.5 °F 1.2 °F 990.7 in SSW 8.0 mph 25.7 mph 79 % 0.0 in
13:45 4.7 °F 1.2 °F 990.7 in SSW 8.0 mph 20.9 mph 78 % 0.0 in
14:00 4.8 °F 0.9 °F 991.1 in SSW 9.7 mph 24.1 mph 76 % 0.0 in
14:15 4.9 °F 1.1 °F 991.1 in SW 8.0 mph 24.1 mph 76 % 0.0 in
14:30 5.9 °F 1.4 °F 990.7 in SW 8.0 mph 20.9 mph 73 % 0.0 in
14:45 5.9 °F 1.4 °F 991.1 in SW 8.0 mph 27.4 mph 73 % 0.0 in
15:00 6.3 °F 1.5 °F 991.1 in SW 8.0 mph 25.7 mph 71 % 0.0 in
15:15 6.6 °F 1.5 °F 991.4 in SSW 8.0 mph 22.5 mph 70 % 0.0 in
15:30 6.3 °F 1.3 °F 991.4 in SW 8.0 mph 17.7 mph 70 % 0.0 in
15:45 6.4 °F 1.3 °F 991.4 in SW 6.4 mph 16.1 mph 70 % 0.0 in
16:00 6.7 °F 1.2 °F 991.4 in SW 9.7 mph 20.9 mph 68 % 0.0 in
16:15 6.4 °F 1.0 °F 991.4 in WSW 8.0 mph 30.6 mph 68 % 0.0 in
16:30 6.1 °F 0.8 °F 991.8 in WSW 8.0 mph 19.3 mph 69 % 0.0 in
16:45 5.8 °F 0.8 °F 992.1 in WSW 8.0 mph 24.1 mph 70 % 0.0 in
17:00 5.7 °F 0.8 °F 992.1 in WSW 6.4 mph 16.1 mph 71 % 0.0 in
17:15 5.6 °F 0.8 °F 992.1 in West 6.4 mph 20.9 mph 71 % 0.0 in
17:45 5.4 °F 0.8 °F 992.4 in WSW 6.4 mph 30.6 mph 72 % 0.0 in
18:00 5.2 °F 0.5 °F 992.4 in WSW 6.4 mph 19.3 mph 72 % 0.0 in
18:30 4.7 °F 0.2 °F 992.8 in West 6.4 mph 19.3 mph 73 % 0.0 in
18:45 4.6 °F 0.3 °F 992.8 in West 9.7 mph 33.8 mph 74 % 0.0 in
19:15 4.3 °F 0.3 °F 993.1 in WNW 9.7 mph 22.5 mph 75 % 0.0 in
19:30 4.2 °F 0.2 °F 993.5 in West 9.7 mph 20.9 mph 75 % 0.0 in
20:00 3.9 °F 0.1 °F 993.8 in WNW 8.0 mph 25.7 mph 76 % 0.0 in
20:15 3.8 °F 0.0 °F 993.8 in West 8.0 mph 20.9 mph 76 % 0.0 in
20:30 3.6 °F -0.1 °F 993.8 in WNW 4.8 mph 16.1 mph 77 % 0.0 in
20:45 3.4 °F -0.3 °F 994.1 in WSW 4.8 mph 16.1 mph 77 % 0.0 in
21:00 3.3 °F -0.5 °F 994.1 in WSW 6.4 mph 16.1 mph 76 % 0.0 in
21:15 3.3 °F -0.5 °F 994.1 in WSW 6.4 mph 19.3 mph 76 % 0.0 in
21:30 3.2 °F -0.8 °F 994.5 in West 4.8 mph 22.5 mph 75 % 0.0 in
21:45 3.2 °F -1.0 °F 994.5 in West 6.4 mph 24.1 mph 74 % 0.0 in
22:00 3.3 °F -1.1 °F 994.8 in WNW 6.4 mph 30.6 mph 73 % 0.0 in
22:15 3.2 °F -1.2 °F 995.1 in WNW 4.8 mph 14.5 mph 73 % 0.0 in
22:30 3.1 °F -1.1 °F 995.1 in WSW 4.8 mph 16.1 mph 74 % 0.0 in
22:45 3.0 °F -1.2 °F 995.5 in West 4.8 mph 14.5 mph 74 % 0.0 in
23:00 2.9 °F -1.2 °F 995.5 in West 3.2 mph 16.1 mph 74 % 0.0 in
23:15 2.8 °F -1.2 °F 995.8 in West 3.2 mph 11.3 mph 75 % 0.0 in
23:30 2.7 °F -1.3 °F 995.8 in West 3.2 mph 11.3 mph 75 % 0.0 in
23:45 2.8 °F -1.2 °F 995.8 in West 3.2 mph 14.5 mph 75 % 0.0 in
Esan sääasema
Terveisin Weather Underground - 2.75 mb

Alkuperäinen skripti  Jim McMurry - jmcmurry@mwt.net Sovitettu myös templatelle  Wim van der Kuil - Leuven-Template.eu

Laitteet joita käytämme:

Sääasema
Davis VP2

Sääasemaohjelma
Cumulus

Sääaseman tietokone
Asus EeePC

Palveluntarjoaja
Suncomet

Davis VP2

Cumulus

Asus EeePC

Suncomet